sensor_id;sensor_type;location;lat;lon;timestamp;pressure;altitude;pressure_sealevel;temperature;humidity
6532;BME280;3299;42.004;24.868;2022-09-03T00:00:56;98007.88;;;20.27;100.00
6532;BME280;3299;42.004;24.868;2022-09-03T00:03:43;98007.06;;;20.27;100.00
6532;BME280;3299;42.004;24.868;2022-09-03T00:06:15;98010.81;;;20.32;100.00
6532;BME280;3299;42.004;24.868;2022-09-03T00:08:50;98015.25;;;20.32;100.00
6532;BME280;3299;42.004;24.868;2022-09-03T00:11:18;98017.41;;;20.28;100.00
6532;BME280;3299;42.004;24.868;2022-09-03T00:14:08;98014.00;;;20.20;100.00
6532;BME280;3299;42.004;24.868;2022-09-03T00:16:49;98027.03;;;20.13;100.00
6532;BME280;3299;42.004;24.868;2022-09-03T00:19:19;98022.88;;;20.19;100.00
6532;BME280;3299;42.004;24.868;2022-09-03T00:22:06;98025.31;;;19.90;100.00
6532;BME280;3299;42.004;24.868;2022-09-03T00:24:35;98033.50;;;19.95;100.00
6532;BME280;3299;42.004;24.868;2022-09-03T00:27:05;98030.00;;;19.72;100.00
6532;BME280;3299;42.004;24.868;2022-09-03T00:29:36;98039.91;;;19.62;100.00
6532;BME280;3299;42.004;24.868;2022-09-03T00:32:13;98031.03;;;19.63;100.00
6532;BME280;3299;42.004;24.868;2022-09-03T00:34:46;98033.00;;;19.69;100.00
6532;BME280;3299;42.004;24.868;2022-09-03T00:37:13;98030.28;;;19.85;100.00
6532;BME280;3299;42.004;24.868;2022-09-03T00:39:38;98025.31;;;19.90;100.00
6532;BME280;3299;42.004;24.868;2022-09-03T00:44:44;98018.75;;;19.94;100.00
6532;BME280;3299;42.004;24.868;2022-09-03T00:47:38;98014.06;;;20.12;100.00
6532;BME280;3299;42.004;24.868;2022-09-03T00:50:11;98004.03;;;20.15;100.00
6532;BME280;3299;42.004;24.868;2022-09-03T00:52:51;98011.75;;;20.17;100.00
6532;BME280;3299;42.004;24.868;2022-09-03T01:00:29;97999.66;;;20.00;100.00
6532;BME280;3299;42.004;24.868;2022-09-03T01:03:19;98007.72;;;19.98;100.00
6532;BME280;3299;42.004;24.868;2022-09-03T01:25:21;98011.34;;;19.67;100.00
6532;BME280;3299;42.004;24.868;2022-09-03T01:30:41;98004.66;;;19.56;100.00
6532;BME280;3299;42.004;24.868;2022-09-03T01:35:49;98013.84;;;19.60;100.00
6532;BME280;3299;42.004;24.868;2022-09-03T01:38:25;98017.16;;;19.46;100.00
6532;BME280;3299;42.004;24.868;2022-09-03T01:44:21;98019.47;;;19.49;100.00
6532;BME280;3299;42.004;24.868;2022-09-03T01:49:50;98009.75;;;19.58;100.00
6532;BME280;3299;42.004;24.868;2022-09-03T01:52:49;98021.88;;;19.59;100.00
6532;BME280;3299;42.004;24.868;2022-09-03T01:58:10;98015.84;;;19.42;100.00
6532;BME280;3299;42.004;24.868;2022-09-03T02:00:39;98024.28;;;19.22;100.00
6532;BME280;3299;42.004;24.868;2022-09-03T02:03:08;98019.38;;;19.11;100.00
6532;BME280;3299;42.004;24.868;2022-09-03T02:05:35;98027.41;;;19.25;100.00
6532;BME280;3299;42.004;24.868;2022-09-03T02:08:06;98017.72;;;19.18;100.00
6532;BME280;3299;42.004;24.868;2022-09-03T02:13:09;98025.28;;;19.13;100.00
6532;BME280;3299;42.004;24.868;2022-09-03T02:15:41;98025.94;;;19.07;100.00
6532;BME280;3299;42.004;24.868;2022-09-03T02:18:14;98025.75;;;19.16;100.00
6532;BME280;3299;42.004;24.868;2022-09-03T02:20:41;98020.84;;;19.21;100.00
6532;BME280;3299;42.004;24.868;2022-09-03T02:23:07;98024.28;;;19.30;100.00
6532;BME280;3299;42.004;24.868;2022-09-03T02:25:37;98026.22;;;19.28;100.00
6532;BME280;3299;42.004;24.868;2022-09-03T02:28:04;98035.56;;;19.38;100.00
6532;BME280;3299;42.004;24.868;2022-09-03T02:30:30;98037.72;;;19.35;100.00
6532;BME280;3299;42.004;24.868;2022-09-03T02:32:56;98031.47;;;19.28;100.00
6532;BME280;3299;42.004;24.868;2022-09-03T02:35:21;98035.09;;;19.35;100.00
6532;BME280;3299;42.004;24.868;2022-09-03T02:37:47;98037.56;;;19.28;100.00
6532;BME280;3299;42.004;24.868;2022-09-03T02:40:12;98047.41;;;19.26;100.00
6532;BME280;3299;42.004;24.868;2022-09-03T02:42:37;98054.59;;;19.24;100.00
6532;BME280;3299;42.004;24.868;2022-09-03T02:45:18;98043.97;;;19.26;100.00
6532;BME280;3299;42.004;24.868;2022-09-03T02:47:46;98048.84;;;19.37;100.00
6532;BME280;3299;42.004;24.868;2022-09-03T02:50:14;98048.81;;;19.45;100.00
6532;BME280;3299;42.004;24.868;2022-09-03T02:52:39;98046.19;;;19.45;100.00
6532;BME280;3299;42.004;24.868;2022-09-03T02:55:05;98048.81;;;19.53;100.00
6532;BME280;3299;42.004;24.868;2022-09-03T02:57:30;98041.88;;;19.60;100.00
6532;BME280;3299;42.004;24.868;2022-09-03T02:59:56;98040.41;;;19.57;100.00
6532;BME280;3299;42.004;24.868;2022-09-03T03:02:21;98046.97;;;19.61;100.00
6532;BME280;3299;42.004;24.868;2022-09-03T03:04:46;98051.06;;;19.56;100.00
6532;BME280;3299;42.004;24.868;2022-09-03T03:07:12;98039.31;;;19.44;100.00
6532;BME280;3299;42.004;24.868;2022-09-03T03:09:37;98047.84;;;19.46;100.00
6532;BME280;3299;42.004;24.868;2022-09-03T03:12:03;98043.25;;;19.48;100.00
6532;BME280;3299;42.004;24.868;2022-09-03T03:14:28;98044.72;;;19.50;100.00
6532;BME280;3299;42.004;24.868;2022-09-03T03:16:54;98042.09;;;19.50;100.00
6532;BME280;3299;42.004;24.868;2022-09-03T03:19:19;98035.38;;;19.48;100.00
6532;BME280;3299;42.004;24.868;2022-09-03T03:21:45;98037.53;;;19.36;100.00
6532;BME280;3299;42.004;24.868;2022-09-03T03:24:10;98040.31;;;19.43;100.00
6532;BME280;3299;42.004;24.868;2022-09-03T03:26:36;98047.19;;;19.44;100.00
6532;BME280;3299;42.004;24.868;2022-09-03T03:29:02;98040.47;;;19.41;100.00
6532;BME280;3299;42.004;24.868;2022-09-03T03:31:31;98034.56;;;19.39;100.00
6532;BME280;3299;42.004;24.868;2022-09-03T03:34:00;98034.94;;;19.20;100.00
6532;BME280;3299;42.004;24.868;2022-09-03T03:36:28;98036.44;;;19.07;100.00
6532;BME280;3299;42.004;24.868;2022-09-03T03:38:56;98041.16;;;19.11;100.00
6532;BME280;3299;42.004;24.868;2022-09-03T03:41:27;98032.03;;;18.91;100.00
6532;BME280;3299;42.004;24.868;2022-09-03T03:43:57;98037.59;;;18.88;100.00
6532;BME280;3299;42.004;24.868;2022-09-03T03:46:23;98035.47;;;18.84;100.00
6532;BME280;3299;42.004;24.868;2022-09-03T03:48:50;98037.09;;;18.85;100.00
6532;BME280;3299;42.004;24.868;2022-09-03T03:51:17;98039.72;;;19.01;100.00
6532;BME280;3299;42.004;24.868;2022-09-03T03:53:44;98040.38;;;19.03;100.00
6532;BME280;3299;42.004;24.868;2022-09-03T03:56:12;98040.53;;;19.01;100.00
6532;BME280;3299;42.004;24.868;2022-09-03T03:58:39;98038.41;;;19.05;100.00
6532;BME280;3299;42.004;24.868;2022-09-03T04:01:17;98041.50;;;19.00;100.00
6532;BME280;3299;42.004;24.868;2022-09-03T04:03:44;98044.97;;;19.01;100.00
6532;BME280;3299;42.004;24.868;2022-09-03T04:06:11;98041.84;;;19.05;100.00
6532;BME280;3299;42.004;24.868;2022-09-03T04:08:39;98040.38;;;19.03;100.00
6532;BME280;3299;42.004;24.868;2022-09-03T04:11:07;98038.72;;;19.02;100.00
6532;BME280;3299;42.004;24.868;2022-09-03T04:13:41;98044.28;;;18.99;100.00
6532;BME280;3299;42.004;24.868;2022-09-03T04:16:12;98048.56;;;19.00;100.00
6532;BME280;3299;42.004;24.868;2022-09-03T04:18:38;98050.72;;;18.96;100.00
6532;BME280;3299;42.004;24.868;2022-09-03T04:21:07;98051.19;;;19.00;100.00
6532;BME280;3299;42.004;24.868;2022-09-03T04:23:34;98049.22;;;19.02;100.00
6532;BME280;3299;42.004;24.868;2022-09-03T04:26:01;98054.78;;;18.99;100.00
6532;BME280;3299;42.004;24.868;2022-09-03T04:28:27;98053.63;;;19.01;100.00
6532;BME280;3299;42.004;24.868;2022-09-03T04:30:53;98065.63;;;18.96;100.00
6532;BME280;3299;42.004;24.868;2022-09-03T04:33:18;98050.19;;;18.93;100.00
6532;BME280;3299;42.004;24.868;2022-09-03T04:35:44;98053.31;;;19.04;100.00
6532;BME280;3299;42.004;24.868;2022-09-03T04:38:09;98055.44;;;19.09;100.00
6532;BME280;3299;42.004;24.868;2022-09-03T04:40:35;98056.41;;;19.16;100.00
6532;BME280;3299;42.004;24.868;2022-09-03T04:43:02;98064.78;;;19.19;100.00
6532;BME280;3299;42.004;24.868;2022-09-03T04:45:28;98063.94;;;19.27;100.00
6532;BME280;3299;42.004;24.868;2022-09-03T04:47:57;98062.13;;;19.35;100.00
6532;BME280;3299;42.004;24.868;2022-09-03T04:50:23;98070.81;;;19.36;100.00
6532;BME280;3299;42.004;24.868;2022-09-03T04:52:48;98071.47;;;19.38;100.00
6532;BME280;3299;42.004;24.868;2022-09-03T04:55:14;98074.56;;;19.49;100.00
6532;BME280;3299;42.004;24.868;2022-09-03T04:57:40;98074.06;;;19.54;100.00
6532;BME280;3299;42.004;24.868;2022-09-03T05:00:07;98091.28;;;19.56;100.00
6532;BME280;3299;42.004;24.868;2022-09-03T05:02:35;98093.06;;;19.56;100.00
6532;BME280;3299;42.004;24.868;2022-09-03T05:05:01;98095.16;;;19.68;100.00
6532;BME280;3299;42.004;24.868;2022-09-03T05:07:26;98104.16;;;19.82;100.00
6532;BME280;3299;42.004;24.868;2022-09-03T05:09:52;98101.19;;;19.85;100.00
6532;BME280;3299;42.004;24.868;2022-09-03T05:12:18;98102.47;;;19.89;100.00
6532;BME280;3299;42.004;24.868;2022-09-03T05:14:44;98103.75;;;20.01;100.00
6532;BME280;3299;42.004;24.868;2022-09-03T05:17:10;98098.19;;;19.96;100.00
6532;BME280;3299;42.004;24.868;2022-09-03T05:19:35;98099.94;;;20.03;100.00
6532;BME280;3299;42.004;24.868;2022-09-03T05:22:01;98101.38;;;20.22;100.00
6532;BME280;3299;42.004;24.868;2022-09-03T05:24:26;98097.59;;;20.24;100.00
6532;BME280;3299;42.004;24.868;2022-09-03T05:26:51;98099.31;;;20.32;100.00
6532;BME280;3299;42.004;24.868;2022-09-03T05:29:17;98098.47;;;20.39;100.00
6532;BME280;3299;42.004;24.868;2022-09-03T05:31:44;98097.59;;;20.47;100.00
6532;BME280;3299;42.004;24.868;2022-09-03T05:34:09;98101.69;;;20.49;100.00
6532;BME280;3299;42.004;24.868;2022-09-03T05:36:36;98109.41;;;20.51;100.00
6532;BME280;3299;42.004;24.868;2022-09-03T05:39:03;98110.97;;;20.60;100.00
6532;BME280;3299;42.004;24.868;2022-09-03T05:41:29;98116.72;;;20.63;100.00
6532;BME280;3299;42.004;24.868;2022-09-03T05:43:56;98110.75;;;20.69;100.00
6532;BME280;3299;42.004;24.868;2022-09-03T05:46:27;98116.53;;;20.65;100.00
6532;BME280;3299;42.004;24.868;2022-09-03T05:49:00;98111.03;;;20.74;100.00
6532;BME280;3299;42.004;24.868;2022-09-03T05:51:26;98118.41;;;20.79;100.00
6532;BME280;3299;42.004;24.868;2022-09-03T05:53:52;98126.13;;;20.80;100.00
6532;BME280;3299;42.004;24.868;2022-09-03T05:56:20;98119.03;;;20.89;100.00
6532;BME280;3299;42.004;24.868;2022-09-03T05:58:50;98127.66;;;20.97;100.00
6532;BME280;3299;42.004;24.868;2022-09-03T06:03:57;98132.91;;;21.20;100.00
6532;BME280;3299;42.004;24.868;2022-09-03T06:06:24;98138.72;;;21.30;100.00
6532;BME280;3299;42.004;24.868;2022-09-03T06:08:51;98141.03;;;21.33;100.00
6532;BME280;3299;42.004;24.868;2022-09-03T06:11:17;98136.47;;;21.27;100.00
6532;BME280;3299;42.004;24.868;2022-09-03T06:13:43;98128.78;;;21.40;100.00
6532;BME280;3299;42.004;24.868;2022-09-03T06:16:08;98127.44;;;21.44;100.00
6532;BME280;3299;42.004;24.868;2022-09-03T06:18:33;98122.41;;;21.49;100.00
6532;BME280;3299;42.004;24.868;2022-09-03T06:21:01;98125.63;;;21.59;100.00
6532;BME280;3299;42.004;24.868;2022-09-03T06:23:28;98127.22;;;21.68;100.00
6532;BME280;3299;42.004;24.868;2022-09-03T06:28:30;98142.56;;;21.93;100.00
6532;BME280;3299;42.004;24.868;2022-09-03T06:30:57;98142.28;;;22.03;100.00
6532;BME280;3299;42.004;24.868;2022-09-03T06:33:23;98146.81;;;22.09;100.00
6532;BME280;3299;42.004;24.868;2022-09-03T06:35:55;98144.44;;;22.14;100.00
6532;BME280;3299;42.004;24.868;2022-09-03T06:38:25;98148.53;;;22.31;100.00
6532;BME280;3299;42.004;24.868;2022-09-03T06:40:55;98140.50;;;22.39;100.00
6532;BME280;3299;42.004;24.868;2022-09-03T06:43:21;98138.78;;;22.46;100.00
6532;BME280;3299;42.004;24.868;2022-09-03T06:46:01;98147.22;;;22.56;100.00
6532;BME280;3299;42.004;24.868;2022-09-03T06:48:29;98149.47;;;22.59;100.00
6532;BME280;3299;42.004;24.868;2022-09-03T06:51:00;98151.78;;;22.68;100.00
6532;BME280;3299;42.004;24.868;2022-09-03T06:53:32;98155.09;;;22.70;100.00
6532;BME280;3299;42.004;24.868;2022-09-03T06:56:06;98150.69;;;22.77;100.00
6532;BME280;3299;42.004;24.868;2022-09-03T06:58:34;98156.84;;;22.84;100.00
6532;BME280;3299;42.004;24.868;2022-09-03T07:01:08;98154.53;;;22.96;100.00
6532;BME280;3299;42.004;24.868;2022-09-03T07:03:34;98155.66;;;23.08;100.00
6532;BME280;3299;42.004;24.868;2022-09-03T07:06:01;98156.16;;;23.18;100.00
6532;BME280;3299;42.004;24.868;2022-09-03T07:08:27;98157.25;;;23.23;100.00
6532;BME280;3299;42.004;24.868;2022-09-03T07:10:53;98159.19;;;23.36;100.00
6532;BME280;3299;42.004;24.868;2022-09-03T07:13:19;98154.88;;;23.35;100.00
6532;BME280;3299;42.004;24.868;2022-09-03T07:15:44;98152.91;;;23.37;100.00
6532;BME280;3299;42.004;24.868;2022-09-03T07:18:10;98151.69;;;23.39;100.00
6532;BME280;3299;42.004;24.868;2022-09-03T07:20:35;98158.28;;;23.29;100.00
6532;BME280;3299;42.004;24.868;2022-09-03T07:23:01;98146.09;;;23.28;100.00
6532;BME280;3299;42.004;24.868;2022-09-03T07:25:26;98150.88;;;23.39;100.00
6532;BME280;3299;42.004;24.868;2022-09-03T07:27:52;98158.88;;;23.52;100.00
6532;BME280;3299;42.004;24.868;2022-09-03T07:30:18;98165.47;;;23.62;100.00
6532;BME280;3299;42.004;24.868;2022-09-03T07:32:45;98166.81;;;23.79;100.00
6532;BME280;3299;42.004;24.868;2022-09-03T07:35:12;98169.16;;;23.89;100.00
6532;BME280;3299;42.004;24.868;2022-09-03T07:37:41;98172.47;;;23.97;100.00
6532;BME280;3299;42.004;24.868;2022-09-03T07:40:08;98172.34;;;24.12;100.00
6532;BME280;3299;42.004;24.868;2022-09-03T07:42:34;98165.47;;;24.23;100.00
6532;BME280;3299;42.004;24.868;2022-09-03T07:45:04;98161.25;;;24.35;100.00
6532;BME280;3299;42.004;24.868;2022-09-03T07:47:30;98172.91;;;24.47;100.00
6532;BME280;3299;42.004;24.868;2022-09-03T07:49:56;98171.69;;;24.56;100.00
6532;BME280;3299;42.004;24.868;2022-09-03T07:52:21;98170.13;;;24.68;100.00
6532;BME280;3299;42.004;24.868;2022-09-03T07:54:47;98180.72;;;24.68;100.00
6532;BME280;3299;42.004;24.868;2022-09-03T07:57:12;98173.00;;;24.73;100.00
6532;BME280;3299;42.004;24.868;2022-09-03T07:59:38;98167.72;;;24.80;100.00
6532;BME280;3299;42.004;24.868;2022-09-03T08:02:03;98173.66;;;24.88;100.00
6532;BME280;3299;42.004;24.868;2022-09-03T08:07:02;98174.50;;;25.02;100.00
6532;BME280;3299;42.004;24.868;2022-09-03T08:09:28;98168.59;;;25.06;100.00
6532;BME280;3299;42.004;24.868;2022-09-03T08:11:53;98174.91;;;25.12;100.00
6532;BME280;3299;42.004;24.868;2022-09-03T08:14:19;98161.28;;;25.15;100.00
6532;BME280;3299;42.004;24.868;2022-09-03T08:16:46;98169.84;;;25.10;100.00
6532;BME280;3299;42.004;24.868;2022-09-03T08:19:12;98162.50;;;25.12;100.00
6532;BME280;3299;42.004;24.868;2022-09-03T08:21:38;98169.19;;;25.08;100.00
6532;BME280;3299;42.004;24.868;2022-09-03T08:24:06;98153.72;;;24.99;100.00
6532;BME280;3299;42.004;24.868;2022-09-03T08:26:35;98172.69;;;25.09;100.00
6532;BME280;3299;42.004;24.868;2022-09-03T08:29:01;98164.13;;;25.13;100.00
6532;BME280;3299;42.004;24.868;2022-09-03T08:31:27;98163.56;;;25.24;100.00
6532;BME280;3299;42.004;24.868;2022-09-03T08:33:55;98165.56;;;25.22;100.00
6532;BME280;3299;42.004;24.868;2022-09-03T08:36:26;98167.19;;;25.23;100.00
6532;BME280;3299;42.004;24.868;2022-09-03T08:38:54;98167.19;;;25.23;100.00
6532;BME280;3299;42.004;24.868;2022-09-03T08:44:24;98165.41;;;25.37;100.00
6532;BME280;3299;42.004;24.868;2022-09-03T08:47:01;98168.44;;;25.40;100.00
6532;BME280;3299;42.004;24.868;2022-09-03T08:52:23;98170.06;;;25.54;100.00
6532;BME280;3299;42.004;24.868;2022-09-03T08:54:51;98164.75;;;25.67;100.00
6532;BME280;3299;42.004;24.868;2022-09-03T08:57:20;98169.44;;;25.72;100.00
6532;BME280;3299;42.004;24.868;2022-09-03T08:59:48;98155.78;;;25.75;100.00
6532;BME280;3299;42.004;24.868;2022-09-03T09:02:43;98155.34;;;25.84;99.53
6532;BME280;3299;42.004;24.868;2022-09-03T09:05:16;98161.28;;;25.86;99.05
6532;BME280;3299;42.004;24.868;2022-09-03T09:07:52;98152.72;;;25.91;97.67
6532;BME280;3299;42.004;24.868;2022-09-03T09:10:45;98149.44;;;25.95;97.06
6532;BME280;3299;42.004;24.868;2022-09-03T09:23:47;98165.50;;;26.13;92.09
6532;BME280;3299;42.004;24.868;2022-09-03T09:26:15;98166.13;;;26.15;92.42
6532;BME280;3299;42.004;24.868;2022-09-03T09:28:47;98175.47;;;26.24;90.78
6532;BME280;3299;42.004;24.868;2022-09-03T09:31:15;98171.38;;;26.28;91.14
6532;BME280;3299;42.004;24.868;2022-09-03T09:33:43;98169.94;;;26.32;93.93
6532;BME280;3299;42.004;24.868;2022-09-03T09:36:12;98155.84;;;26.32;92.74
6532;BME280;3299;42.004;24.868;2022-09-03T09:38:40;98169.06;;;26.45;91.99
6532;BME280;3299;42.004;24.868;2022-09-03T09:41:14;98166.78;;;26.48;90.78
6532;BME280;3299;42.004;24.868;2022-09-03T09:43:40;98171.09;;;26.49;90.38
6532;BME280;3299;42.004;24.868;2022-09-03T09:46:11;98168.63;;;26.54;90.08
6532;BME280;3299;42.004;24.868;2022-09-03T09:48:42;98148.59;;;26.52;90.30
6532;BME280;3299;42.004;24.868;2022-09-03T09:51:37;98161.88;;;26.58;89.48
6532;BME280;3299;42.004;24.868;2022-09-03T09:54:24;98163.94;;;26.56;87.88
6532;BME280;3299;42.004;24.868;2022-09-03T09:57:22;98154.75;;;26.59;90.57
6532;BME280;3299;42.004;24.868;2022-09-03T09:59:48;98167.50;;;26.75;89.23
6532;BME280;3299;42.004;24.868;2022-09-03T10:02:18;98161.50;;;26.92;87.23
6532;BME280;3299;42.004;24.868;2022-09-03T10:04:45;98162.25;;;26.99;85.52
6532;BME280;3299;42.004;24.868;2022-09-03T10:07:24;98161.78;;;27.09;85.54
6532;BME280;3299;42.004;24.868;2022-09-03T10:10:02;98149.72;;;27.19;85.57
6532;BME280;3299;42.004;24.868;2022-09-03T10:20:23;98152.88;;;27.77;76.65
6532;BME280;3299;42.004;24.868;2022-09-03T10:23:26;98149.22;;;27.96;72.48
6532;BME280;3299;42.004;24.868;2022-09-03T10:26:11;98147.81;;;28.11;70.50
6532;BME280;3299;42.004;24.868;2022-09-03T10:28:40;98141.31;;;28.25;65.08
6532;BME280;3299;42.004;24.868;2022-09-03T10:42:51;98148.59;;;28.66;63.28
6532;BME280;3299;42.004;24.868;2022-09-03T10:51:17;98153.28;;;29.00;61.39
6532;BME280;3299;42.004;24.868;2022-09-03T11:05:08;98146.56;;;29.73;57.05
6532;BME280;3299;42.004;24.868;2022-09-03T11:07:42;98147.97;;;29.75;57.47
6532;BME280;3299;42.004;24.868;2022-09-03T11:10:27;98148.06;;;29.92;55.07
6532;BME280;3299;42.004;24.868;2022-09-03T11:15:35;98147.25;;;30.14;55.25
6532;BME280;3299;42.004;24.868;2022-09-03T11:18:13;98152.81;;;30.24;55.94
6532;BME280;3299;42.004;24.868;2022-09-03T11:20:40;98159.16;;;30.35;54.02
6532;BME280;3299;42.004;24.868;2022-09-03T11:23:08;98165.75;;;30.44;54.77
6532;BME280;3299;42.004;24.868;2022-09-03T11:25:52;98159.81;;;30.53;53.61
6532;BME280;3299;42.004;24.868;2022-09-03T11:34:25;98160.00;;;30.63;53.76
6532;BME280;3299;42.004;24.868;2022-09-03T11:37:02;98155.56;;;30.80;54.04
6532;BME280;3299;42.004;24.868;2022-09-03T11:39:33;98161.22;;;30.84;53.66
6532;BME280;3299;42.004;24.868;2022-09-03T11:42:02;98152.16;;;30.85;53.42
6532;BME280;3299;42.004;24.868;2022-09-03T11:44:50;98153.38;;;30.94;54.01
6532;BME280;3299;42.004;24.868;2022-09-03T11:49:49;98141.97;;;30.98;52.94
6532;BME280;3299;42.004;24.868;2022-09-03T11:52:25;98122.03;;;30.89;54.24
6532;BME280;3299;42.004;24.868;2022-09-03T11:54:51;98147.34;;;31.15;51.81
6532;BME280;3299;42.004;24.868;2022-09-03T11:57:26;98149.47;;;31.13;52.40
6532;BME280;3299;42.004;24.868;2022-09-03T11:59:53;98145.88;;;31.07;52.93
6532;BME280;3299;42.004;24.868;2022-09-03T12:02:28;98152.00;;;31.19;53.53
6532;BME280;3299;42.004;24.868;2022-09-03T12:05:16;98148.34;;;31.25;51.38
6532;BME280;3299;42.004;24.868;2022-09-03T12:13:23;98139.06;;;31.44;51.30
6532;BME280;3299;42.004;24.868;2022-09-03T12:18:34;98142.44;;;31.73;49.66
6532;BME280;3299;42.004;24.868;2022-09-03T12:21:05;98151.69;;;31.82;50.00
6532;BME280;3299;42.004;24.868;2022-09-03T12:26:10;98138.88;;;32.05;48.91
6532;BME280;3299;42.004;24.868;2022-09-03T12:28:41;98143.88;;;32.18;47.99
6532;BME280;3299;42.004;24.868;2022-09-03T12:31:14;98151.84;;;32.30;48.25
6532;BME280;3299;42.004;24.868;2022-09-03T12:36:22;98154.75;;;32.50;46.94
6532;BME280;3299;42.004;24.868;2022-09-03T12:38:48;98149.69;;;32.53;48.34
6532;BME280;3299;42.004;24.868;2022-09-03T12:41:27;98149.44;;;32.55;47.55
6532;BME280;3299;42.004;24.868;2022-09-03T12:43:55;98147.50;;;32.72;47.84
6532;BME280;3299;42.004;24.868;2022-09-03T12:46:23;98145.31;;;32.90;47.03
6532;BME280;3299;42.004;24.868;2022-09-03T12:48:56;98154.63;;;33.09;46.26
6532;BME280;3299;42.004;24.868;2022-09-03T12:51:30;98148.41;;;33.30;45.79
6532;BME280;3299;42.004;24.868;2022-09-03T12:53:56;98155.53;;;33.51;44.94
6532;BME280;3299;42.004;24.868;2022-09-03T12:56:22;98153.22;;;33.65;44.87
6532;BME280;3299;42.004;24.868;2022-09-03T12:58:53;98145.03;;;33.81;44.67
6532;BME280;3299;42.004;24.868;2022-09-03T13:01:28;98137.91;;;33.60;44.28
6532;BME280;3299;42.004;24.868;2022-09-03T13:04:18;98153.34;;;33.43;44.13
6532;BME280;3299;42.004;24.868;2022-09-03T13:09:15;98149.09;;;32.94;45.57
6532;BME280;3299;42.004;24.868;2022-09-03T13:11:44;98147.06;;;33.06;45.02
6532;BME280;3299;42.004;24.868;2022-09-03T13:14:11;98151.09;;;33.30;44.26
6532;BME280;3299;42.004;24.868;2022-09-03T13:25:15;98148.25;;;32.24;46.00
6532;BME280;3299;42.004;24.868;2022-09-03T13:28:04;98139.31;;;31.97;46.14
6532;BME280;3299;42.004;24.868;2022-09-03T13:30:53;98146.91;;;31.51;47.26
6532;BME280;3299;42.004;24.868;2022-09-03T13:33:42;98154.19;;;31.22;47.52
6532;BME280;3299;42.004;24.868;2022-09-03T13:36:15;98139.84;;;31.28;48.19
6532;BME280;3299;42.004;24.868;2022-09-03T13:38:52;98137.56;;;31.70;47.83
6532;BME280;3299;42.004;24.868;2022-09-03T13:55:25;98141.09;;;33.94;42.46
6532;BME280;3299;42.004;24.868;2022-09-03T13:58:05;98141.50;;;34.17;40.95
6532;BME280;3299;42.004;24.868;2022-09-03T14:00:42;98152.09;;;34.49;39.46
6532;BME280;3299;42.004;24.868;2022-09-03T14:03:32;98152.78;;;34.81;39.68
6532;BME280;3299;42.004;24.868;2022-09-03T14:11:39;98160.91;;;35.21;37.41
6532;BME280;3299;42.004;24.868;2022-09-03T14:17:09;98166.03;;;35.67;36.12
6532;BME280;3299;42.004;24.868;2022-09-03T14:19:47;98173.34;;;35.37;38.53
6532;BME280;3299;42.004;24.868;2022-09-03T14:22:28;98173.53;;;35.00;39.43
6532;BME280;3299;42.004;24.868;2022-09-03T14:25:08;98158.44;;;34.89;37.84
6532;BME280;3299;42.004;24.868;2022-09-03T14:27:35;98180.31;;;35.23;37.49
6532;BME280;3299;42.004;24.868;2022-09-03T14:30:03;98175.22;;;35.46;36.84
6532;BME280;3299;42.004;24.868;2022-09-03T14:46:18;98185.13;;;36.26;36.21
6532;BME280;3299;42.004;24.868;2022-09-03T14:59:33;98181.81;;;34.84;38.01
6532;BME280;3299;42.004;24.868;2022-09-03T15:07:50;98163.53;;;32.45;45.40
6532;BME280;3299;42.004;24.868;2022-09-03T15:10:25;98174.38;;;31.63;45.51
6532;BME280;3299;42.004;24.868;2022-09-03T15:12:54;98177.69;;;31.53;44.49
6532;BME280;3299;42.004;24.868;2022-09-03T15:15:32;98174.75;;;31.22;47.63
6532;BME280;3299;42.004;24.868;2022-09-03T15:20:51;98187.50;;;30.01;51.24
6532;BME280;3299;42.004;24.868;2022-09-03T15:36:48;98161.78;;;28.90;55.54
6532;BME280;3299;42.004;24.868;2022-09-03T15:39:30;98161.63;;;29.03;54.86
6532;BME280;3299;42.004;24.868;2022-09-03T15:42:06;98162.22;;;28.87;58.35
6532;BME280;3299;42.004;24.868;2022-09-03T15:44:38;98160.72;;;28.80;57.14
6532;BME280;3299;42.004;24.868;2022-09-03T15:47:08;98163.09;;;28.70;61.10
6532;BME280;3299;42.004;24.868;2022-09-03T15:52:53;98174.44;;;28.65;58.31
6532;BME280;3299;42.004;24.868;2022-09-03T15:55:37;98184.84;;;28.67;58.20
6532;BME280;3299;42.004;24.868;2022-09-03T15:58:25;98175.88;;;28.50;63.18
6532;BME280;3299;42.004;24.868;2022-09-03T16:01:06;98171.19;;;28.09;65.72
6532;BME280;3299;42.004;24.868;2022-09-03T16:03:45;98186.75;;;27.88;66.97
6532;BME280;3299;42.004;24.868;2022-09-03T16:06:26;98179.69;;;27.75;68.47
6532;BME280;3299;42.004;24.868;2022-09-03T16:12:00;98178.88;;;27.75;64.25
6532;BME280;3299;42.004;24.868;2022-09-03T16:14:37;98186.00;;;27.81;62.98
6532;BME280;3299;42.004;24.868;2022-09-03T16:17:48;98177.72;;;27.64;66.91
6532;BME280;3299;42.004;24.868;2022-09-03T16:22:56;98158.69;;;27.18;71.43
6532;BME280;3299;42.004;24.868;2022-09-03T16:25:29;98173.41;;;27.14;72.89
6532;BME280;3299;42.004;24.868;2022-09-03T16:28:04;98189.88;;;27.29;73.12
6532;BME280;3299;42.004;24.868;2022-09-03T16:30:50;98194.97;;;27.00;74.14
6532;BME280;3299;42.004;24.868;2022-09-03T16:36:14;98210.94;;;26.43;78.46
6532;BME280;3299;42.004;24.868;2022-09-03T16:39:02;98219.44;;;26.64;75.30
6532;BME280;3299;42.004;24.868;2022-09-03T16:41:42;98217.81;;;26.70;71.40
6532;BME280;3299;42.004;24.868;2022-09-03T16:44:38;98216.56;;;26.72;69.99
6532;BME280;3299;42.004;24.868;2022-09-03T17:01:07;98234.69;;;25.66;76.63
6532;BME280;3299;42.004;24.868;2022-09-03T17:08:49;98237.75;;;25.63;80.07
6532;BME280;3299;42.004;24.868;2022-09-03T17:11:58;98246.91;;;25.67;81.05
6532;BME280;3299;42.004;24.868;2022-09-03T17:25:01;98258.59;;;24.93;86.03
6532;BME280;3299;42.004;24.868;2022-09-03T17:27:47;98264.72;;;25.00;83.05
6532;BME280;3299;42.004;24.868;2022-09-03T17:44:46;98290.09;;;24.75;89.26
6532;BME280;3299;42.004;24.868;2022-09-03T17:52:48;98286.91;;;24.25;93.67
6532;BME280;3299;42.004;24.868;2022-09-03T17:57:51;98294.81;;;23.91;97.64
6532;BME280;3299;42.004;24.868;2022-09-03T18:00:39;98298.13;;;23.78;98.79